La Fayette, NY

9:12 AM EDT on July 30, 2015 (GMT -0400)
Tully Valley | | Change Station
CLOSE
Current Station
Personal Weather Station
Location: Tully, NY
Elevation: 663 ft
Nearby Weather Stations

Elev 663 ft 42.86 °N, 76.13 °W | Updated 57 seconds ago

Rain
Rain
76.6 °F
Feels Like 78 °F
N
1.6
Wind Variable Wind from East
Gusts 2.2 mph

Today
High -- | Low -- °F
--% Chance of Precip.
Yesterday
High -- | Low -- °F
Precip. -- in
5:53 AM 8:27 PM
Waxing Gibbous, 99% visible
Pressure 29.81 in
Visibility 2.5 miles
Clouds Scattered Clouds 2100 ft
Overcast 2700 ft
Heat Index 78 °F
Dew Point 70 °F
Humidity 81%
Rainfall 0.02 in
Snow Depth Not available.
UV 1 out of 12
Pollen 6.30 out of 12
Air Quality Not available.
Flu Activity Not available.
METAR KSYR 301254Z 25010KT 2 1/2SM R28/5500VP6000FT RA BR SCT021 OVC027 24/23 A2982 RMK AO2 RAB03 SLP092 P0003 T02390228 $

More Conditions Fewer Conditions

Pressure 29.81 in
Visibility 2.5 miles
Clouds Scattered Clouds 2100 ft
Overcast 2700 ft
Heat Index 78 °F
Dew Point 70 °F
Humidity 81%
Rainfall 0.02 in
Snow Depth Not available.
UV 1 out of 12
Pollen 6.30 out of 12
Air Quality Not available.
Flu Activity Not available.
METAR KSYR 301254Z 25010KT 2 1/2SM R28/5500VP6000FT RA BR SCT021 OVC027 24/23 A2982 RMK AO2 RAB03 SLP092 P0003 T02390228 $

More Conditions Fewer Conditions

10-Day Weather Forecast

×

Almanac

Astronomy

Jul. 30, 2015 Rise Set
Actual Time
Civil Twilight
Nautical Twilight
Astronomical Twilight
Moon
Length of Visible Light
Length of Day
Tomorrow will be .
, % of the Moon is Illuminated

Today's Extremes

State Highs State Lows

Community

WunderPhotos

Upload Photos

1,842,347 photos uploaded!

WunderBlogs® & News

Nearby

Air Quality

  Air Quality AQ Index Pollutant
Not available.

Snow Depth

Station Depth Elevation

Earthquake Activity

City Distance Mag. Time & Date
Minimum magnitude displayed is 2.5.

Coastal Water Temperatures

Place Temperature

Stations

Nearby Weather Stations

Station Location Temp. Windchill Dew Point Humidity Wind Precip. Elev Updated Type